Time;durP1;ratioP1;P1;durP2;ratioP2;P2;SDS_P1;SDS_P2;PMS_P1;PMS_P2;Temp;Humidity;BMP_temperature;BMP_pressure;BME280_temperature;BME280_humidity;BME280_pressure;Samples;Min_cycle;Max_cycle;Signal;HPM_P1;HPM_P2
2024/04/09 00:01:20;;;;;;;4.60;0.90;;;;;;;9.08;71.37;98407.97;5445253;26;20003;-48
2024/04/09 00:03:47;;;;;;;2.78;1.08;;;;;;;9.10;71.55;98401.06;5501510;25;20006;-47
2024/04/09 00:06:15;;;;;;;3.92;0.65;;;;;;;9.09;71.32;98404.53;5434094;26;20440;-48
2024/04/09 00:08:44;;;;;;;4.43;0.90;;;;;;;9.03;71.10;98395.19;5445141;26;20448;-47
2024/04/09 00:11:21;;;;;;;2.38;0.68;;;;;;;9.04;71.26;98380.53;5427137;26;20003;-45
2024/04/09 00:13:53;;;;;;;1.08;0.50;;;;;;;8.89;70.69;98377.44;5442128;26;20010;-46
2024/04/09 00:16:24;;;;;;;4.18;0.73;;;;;;;8.83;71.04;98368.09;5436009;26;20013;-47
2024/04/09 00:18:58;;;;;;;7.15;0.73;;;;;;;8.85;71.11;98380.97;5444519;26;20007;-46
2024/04/09 00:21:30;;;;;;;0.73;0.40;;;;;;;8.83;71.15;98372.41;5437891;26;20013;-45
2024/04/09 00:23:58;;;;;;;3.78;0.52;;;;;;;8.77;71.11;98359.63;5444970;26;20848;-45
2024/04/09 00:26:29;;;;;;;4.88;0.93;;;;;;;8.79;71.30;98350.97;5442065;26;20006;-45
2024/04/09 00:28:56;;;;;;;2.00;0.70;;;;;;;8.70;71.49;98341.72;5442589;25;20139;-45
2024/04/09 00:31:25;;;;;;;6.65;1.13;;;;;;;8.75;71.42;98333.88;5438674;26;20026;-46
2024/04/09 00:33:53;;;;;;;9.85;1.30;;;;;;;8.64;71.63;98336.66;5453563;26;20478;-45
2024/04/09 00:36:20;;;;;;;6.38;1.65;;;;;;;8.57;71.81;98335.09;5441538;26;20320;-45
2024/04/09 00:38:48;;;;;;;4.88;0.73;;;;;;;8.47;72.11;98324.97;5410432;26;20011;-45
2024/04/09 00:41:16;;;;;;;4.95;2.05;;;;;;;8.52;72.25;98316.28;5425548;26;20026;-46
2024/04/09 00:43:45;;;;;;;3.90;0.52;;;;;;;8.40;72.29;98323.41;5427746;26;19999;-47
2024/04/09 00:46:15;;;;;;;2.50;0.55;;;;;;;8.39;72.20;98321.72;5407598;26;20410;-46
2024/04/09 00:48:44;;;;;;;4.88;0.95;;;;;;;8.44;72.09;98319.88;5372576;26;20018;-46
2024/04/09 00:51:15;;;;;;;8.82;0.82;;;;;;;8.45;72.42;98321.56;5407333;26;20011;-46
2024/04/09 00:53:44;;;;;;;1.77;0.60;;;;;;;8.43;72.55;98325.91;5405767;26;20015;-45
2024/04/09 00:56:12;;;;;;;4.93;0.60;;;;;;;8.43;72.52;98307.84;5391397;26;20008;-45
2024/04/09 00:58:40;;;;;;;3.80;0.70;;;;;;;8.46;72.55;98302.63;5392238;26;20019;-46
2024/04/09 01:01:11;;;;;;;5.40;0.82;;;;;;;8.39;72.55;98295.91;5399875;26;20027;-45
2024/04/09 01:03:40;;;;;;;3.55;2.00;;;;;;;8.42;72.82;98295.84;5402207;26;20004;-46
2024/04/09 01:06:09;;;;;;;5.10;0.95;;;;;;;8.52;72.68;98308.53;5388017;26;19999;-45
2024/04/09 01:08:36;;;;;;;1.60;0.82;;;;;;;8.42;73.31;98302.72;5393549;26;20789;-45
2024/04/09 01:11:03;;;;;;;6.68;0.98;;;;;;;8.38;73.11;98271.00;5419294;26;20134;-45
2024/04/09 01:13:30;;;;;;;2.72;0.43;;;;;;;8.35;72.58;98278.81;5432484;26;20034;-46
2024/04/09 01:15:57;;;;;;;2.47;0.63;;;;;;;8.41;72.44;98273.50;5447183;26;20007;-46
2024/04/09 01:18:24;;;;;;;5.47;0.77;;;;;;;8.41;72.28;98276.06;5431344;26;20043;-45
2024/04/09 01:20:51;;;;;;;3.83;0.52;;;;;;;8.45;71.89;98269.97;5437278;26;20006;-45
2024/04/09 01:23:17;;;;;;;8.70;0.98;;;;;;;8.45;71.91;98254.47;5436064;26;20526;-47
2024/04/09 01:25:44;;;;;;;2.55;0.43;;;;;;;8.52;71.11;98254.34;5442502;26;20007;-46
2024/04/09 01:28:11;;;;;;;4.32;0.50;;;;;;;8.45;70.89;98259.63;5443610;26;20017;-49
2024/04/09 01:30:39;;;;;;;6.47;2.20;;;;;;;8.48;70.73;98261.31;5440582;26;20014;-46
2024/04/09 01:33:06;;;;;;;3.78;0.43;;;;;;;8.52;70.32;98254.34;5432730;26;20043;-45
2024/04/09 01:35:33;;;;;;;3.72;0.82;;;;;;;8.53;70.39;98248.28;5444098;26;20006;-48
2024/04/09 01:38:00;;;;;;;5.57;0.80;;;;;;;8.49;70.76;98250.94;5424866;26;20033;-48
2024/04/09 01:40:27;;;;;;;2.80;0.50;;;;;;;8.60;70.97;98231.81;5413326;26;20011;-47
2024/04/09 01:42:54;;;;;;;2.63;0.73;;;;;;;8.58;70.32;98231.03;5432262;26;20072;-47
2024/04/09 01:45:21;;;;;;;2.65;0.57;;;;;;;8.63;70.06;98231.75;5439389;26;20082;-46
2024/04/09 01:47:47;;;;;;;4.22;0.50;;;;;;;8.60;69.96;98247.31;5438776;26;20910;-48
2024/04/09 01:50:14;;;;;;;7.15;0.77;;;;;;;8.59;69.88;98240.44;5440051;26;20007;-48
2024/04/09 01:52:42;;;;;;;1.55;0.68;;;;;;;8.56;69.86;98248.25;5434210;26;20116;-48
2024/04/09 01:55:10;;;;;;;3.03;0.73;;;;;;;8.65;70.51;98255.78;5427509;26;20076;-46
2024/04/09 01:57:37;;;;;;;2.20;0.47;;;;;;;8.67;69.95;98242.84;5429877;26;20071;-45
2024/04/09 02:00:11;;;;;;;2.58;2.38;;;;;;;8.66;70.30;98247.16;5416364;26;20015;-46
2024/04/09 02:02:41;;;;;;;2.67;0.45;;;;;;;8.60;70.26;98244.72;5438096;26;20010;-45
2024/04/09 02:05:08;;;;;;;2.92;0.90;;;;;;;8.63;70.04;98236.91;5438059;26;20922;-47
2024/04/09 02:07:35;;;;;;;2.15;0.65;;;;;;;8.69;70.37;98230.75;5442882;26;20039;-46
2024/04/09 02:10:03;;;;;;;3.33;0.85;;;;;;;8.56;70.26;98230.19;5431374;26;20035;-45
2024/04/09 02:12:29;;;;;;;6.40;0.82;;;;;;;8.63;70.64;98212.81;5402731;26;20028;-47
2024/04/09 02:14:57;;;;;;;6.57;0.68;;;;;;;8.70;70.47;98204.91;5402955;26;20004;-48
2024/04/09 02:17:24;;;;;;;8.05;2.33;;;;;;;8.62;70.51;98199.09;5428929;26;20077;-45
2024/04/09 02:19:51;;;;;;;7.28;2.10;;;;;;;8.58;70.74;98197.47;5418520;26;20085;-47
2024/04/09 02:22:18;;;;;;;2.97;0.50;;;;;;;8.59;70.50;98188.84;5403132;26;20007;-46
2024/04/09 02:24:45;;;;;;;5.45;0.77;;;;;;;8.64;71.17;98192.16;5407689;26;20016;-47
2024/04/09 02:27:13;;;;;;;5.38;0.82;;;;;;;8.62;70.99;98175.88;5419179;26;20004;-46
2024/04/09 02:29:39;;;;;;;2.42;0.55;;;;;;;8.61;71.18;98169.00;5401474;26;20008;-45
2024/04/09 02:32:06;;;;;;;3.42;0.60;;;;;;;8.56;71.32;98170.84;5402994;26;20007;-47
2024/04/09 02:34:35;;;;;;;2.70;0.50;;;;;;;8.56;70.91;98163.09;5423306;26;20075;-46
2024/04/09 02:37:04;;;;;;;3.22;2.40;;;;;;;8.58;71.43;98161.34;5445445;26;19995;-60
2024/04/09 02:39:32;;;;;;;4.70;0.77;;;;;;;8.67;71.29;98160.25;5440065;26;20472;-47
2024/04/09 02:42:03;;;;;;;3.40;0.70;;;;;;;8.64;70.91;98161.19;5442850;26;20014;-50
2024/04/09 02:44:29;;;;;;;7.25;2.35;;;;;;;8.67;70.93;98161.09;5442373;25;20017;-48
2024/04/09 02:46:58;;;;;;;3.90;0.68;;;;;;;8.65;71.18;98168.03;5444506;25;20003;-48
2024/04/09 02:49:25;;;;;;;6.15;0.82;;;;;;;8.61;71.41;98161.25;5442534;25;20449;-47
2024/04/09 02:51:51;;;;;;;8.07;0.77;;;;;;;8.53;72.57;98157.97;5443335;25;20456;-46
2024/04/09 02:54:18;;;;;;;4.80;0.90;;;;;;;8.58;72.45;98145.88;5435099;26;20112;-47
2024/04/09 02:56:45;;;;;;;3.35;0.45;;;;;;;8.61;72.37;98140.59;5420394;26;20034;-46
2024/04/09 02:59:13;;;;;;;6.03;2.90;;;;;;;8.63;72.11;98128.53;5443822;25;20019;-45
2024/04/09 03:01:40;;;;;;;3.75;1.15;;;;;;;8.59;72.22;98122.59;5433777;26;19999;-46
2024/04/09 03:04:06;;;;;;;3.22;1.15;;;;;;;8.51;73.12;98123.66;5445004;25;20019;-46
2024/04/09 03:06:34;;;;;;;2.10;1.00;;;;;;;8.54;73.32;98114.13;5436512;26;20007;-45
2024/04/09 03:09:02;;;;;;;3.03;2.30;;;;;;;8.51;74.15;98118.50;5448835;25;20007;-48
2024/04/09 03:11:29;;;;;;;5.75;0.80;;;;;;;8.53;73.57;98106.38;5417966;26;20013;-46
2024/04/09 03:13:56;;;;;;;2.45;1.75;;;;;;;8.36;75.46;98099.91;5414657;26;20037;-48
2024/04/09 03:16:22;;;;;;;1.27;0.90;;;;;;;8.35;76.63;98093.06;5445166;26;20718;-48
2024/04/09 03:18:51;;;;;;;2.17;0.60;;;;;;;8.30;76.78;98094.91;5437163;26;20707;-46
2024/04/09 03:21:18;;;;;;;3.70;0.50;;;;;;;8.35;76.53;98093.06;5442085;26;20033;-46
2024/04/09 03:23:45;;;;;;;5.82;1.33;;;;;;;8.43;75.75;98082.53;5408355;26;20026;-45
2024/04/09 03:26:13;;;;;;;1.13;0.65;;;;;;;8.37;76.33;98080.97;5413203;26;19999;-46
2024/04/09 03:28:40;;;;;;;2.38;0.40;;;;;;;8.29;76.89;98070.00;5443255;26;20017;-46
2024/04/09 03:31:08;;;;;;;2.85;0.73;;;;;;;8.34;76.63;98066.41;5440456;26;20017;-46
2024/04/09 03:33:35;;;;;;;1.95;0.30;;;;;;;8.31;76.80;98066.50;5488444;25;20367;-45
2024/04/09 03:36:05;;;;;;;5.97;0.68;;;;;;;8.42;76.08;98055.06;5416367;26;20014;-45
2024/04/09 03:38:32;;;;;;;3.90;1.00;;;;;;;8.36;76.71;98050.91;5434172;26;20017;-47
2024/04/09 03:41:02;;;;;;;2.05;1.90;;;;;;;8.29;77.28;98039.06;5444390;26;20050;-46
2024/04/09 03:43:29;;;;;;;2.38;1.05;;;;;;;8.32;78.06;98038.97;5404111;26;20077;-50
2024/04/09 03:46:06;;;;;;;3.13;0.55;;;;;;;8.35;77.32;98031.16;5443233;26;20011;-50
2024/04/09 03:48:35;;;;;;;0.88;0.32;;;;;;;8.32;78.60;98026.09;5442758;26;20002;-49
2024/04/09 03:51:02;;;;;;;1.20;0.63;;;;;;;8.26;79.36;98021.94;5497317;26;20007;-46
2024/04/09 03:53:29;;;;;;;1.13;0.73;;;;;;;8.32;79.31;98015.75;5444580;26;19995;-47
2024/04/09 03:55:56;;;;;;;3.38;0.65;;;;;;;8.32;79.72;98020.91;5444205;26;20336;-45
2024/04/09 03:58:27;;;;;;;0.52;0.30;;;;;;;8.23;80.02;98009.97;5443039;26;20050;-46
2024/04/09 04:00:54;;;;;;;;;;;;;;;8.16;80.74;98007.56;5439518;26;20006;-46
2024/04/09 04:03:21;;;;;;;2.75;1.98;;;;;;;8.19;80.74;97995.47;5444630;26;19931;-46
2024/04/09 04:05:53;;;;;;;0.82;0.30;;;;;;;8.23;80.54;97997.06;5442093;26;20003;-48
2024/04/09 04:08:23;;;;;;;4.38;2.17;;;;;;;8.28;80.11;97998.69;5411225;26;19999;-46
2024/04/09 04:10:55;;;;;;;1.92;0.52;;;;;;;8.30;80.30;97992.59;5423168;26;20018;-48
2024/04/09 04:13:25;;;;;;;5.03;1.17;;;;;;;8.26;80.71;97995.28;5438904;26;20047;-46
2024/04/09 04:16:00;;;;;;;0.95;0.30;;;;;;;8.31;80.15;97993.44;5439270;26;20036;-47
2024/04/09 04:18:26;;;;;;;2.47;0.68;;;;;;;8.32;80.44;97982.22;5442657;26;20015;-44
2024/04/09 04:20:54;;;;;;;0.30;0.30;;;;;;;8.25;81.05;97980.69;5442089;26;20013;-45
2024/04/09 04:23:22;;;;;;;1.67;0.57;;;;;;;8.29;80.73;97974.56;5417324;26;20011;-44
2024/04/09 04:26:12;;;;;;;3.53;1.83;;;;;;;8.28;80.72;97972.88;5400435;26;20839;-47
2024/04/09 04:28:40;;;;;;;1.73;0.38;;;;;;;8.28;81.38;97976.28;5394753;26;20014;-46
2024/04/09 04:31:09;;;;;;;3.65;0.52;;;;;;;8.28;80.89;97970.31;5407779;26;20065;-45
2024/04/09 04:33:36;;;;;;;4.70;0.60;;;;;;;8.34;80.71;97970.13;5433928;26;20019;-44
2024/04/09 04:36:05;;;;;;;3.08;2.00;;;;;;;8.42;79.71;97973.38;5405006;26;20077;-44
2024/04/09 04:38:32;;;;;;;2.20;1.10;;;;;;;8.39;80.57;97973.44;5401833;26;20011;-44
2024/04/09 04:40:59;;;;;;;2.22;2.13;;;;;;;8.40;80.75;97977.72;5399748;26;20089;-45
2024/04/09 04:43:26;;;;;;;2.08;0.60;;;;;;;8.36;81.38;97976.09;5415125;26;20004;-46
2024/04/09 04:45:55;;;;;;;2.40;0.50;;;;;;;8.46;80.05;97969.81;5435258;26;20004;-45
2024/04/09 04:48:22;;;;;;;2.58;0.73;;;;;;;8.51;79.88;97974.00;5439071;26;20043;-45
2024/04/09 04:50:49;;;;;;;6.45;2.22;;;;;;;8.53;80.02;97972.19;5435638;25;20010;-45
2024/04/09 04:53:15;;;;;;;2.28;0.40;;;;;;;8.55;80.01;97966.13;5440568;25;20071;-44
2024/04/09 04:55:42;;;;;;;2.28;2.03;;;;;;;8.58;79.96;97968.63;5431341;26;20056;-44
2024/04/09 04:58:09;;;;;;;1.65;0.63;;;;;;;8.59;79.61;97966.91;5437756;25;20081;-44
2024/04/09 05:00:37;;;;;;;3.05;2.80;;;;;;;8.62;79.99;97966.84;5436658;26;20011;-45
2024/04/09 05:03:04;;;;;;;2.40;2.08;;;;;;;8.66;79.25;97968.44;5431003;25;20007;-46
2024/04/09 05:05:32;;;;;;;5.78;1.13;;;;;;;8.70;79.41;97971.75;5431907;26;20007;-48
2024/04/09 05:07:59;;;;;;;4.50;0.47;;;;;;;8.67;79.91;97970.13;5410515;26;20015;-47
2024/04/09 05:10:27;;;;;;;2.28;0.70;;;;;;;8.76;79.37;97973.31;5396163;26;20014;-47
2024/04/09 05:12:55;;;;;;;3.58;0.55;;;;;;;8.78;79.48;97971.56;5401343;26;20000;-47
2024/04/09 05:15:22;;;;;;;2.17;0.70;;;;;;;8.81;79.16;97966.31;5410414;26;20699;-48
2024/04/09 05:17:50;;;;;;;2.67;2.47;;;;;;;8.79;79.51;97968.09;5433288;26;20585;-46
2024/04/09 05:20:18;;;;;;;2.15;1.95;;;;;;;8.79;79.37;97973.25;5440365;26;20014;-46
2024/04/09 05:22:47;;;;;;;3.28;2.30;;;;;;;8.84;79.69;97971.38;5435257;26;20084;-47
2024/04/09 05:25:16;;;;;;;1.27;0.52;;;;;;;8.86;79.31;97964.44;5438271;26;19995;-47
2024/04/09 05:27:44;;;;;;;1.33;0.60;;;;;;;8.89;79.55;97974.69;5441564;26;20019;-44
2024/04/09 05:30:11;;;;;;;3.88;2.28;;;;;;;8.91;79.42;97974.63;5406598;26;20011;-46
2024/04/09 05:32:41;;;;;;;2.15;0.75;;;;;;;8.94;78.89;97971.94;5399958;26;20019;-45
2024/04/09 05:35:10;;;;;;;1.23;0.50;;;;;;;8.95;79.57;97974.47;5410772;26;20002;-45
2024/04/09 05:37:38;;;;;;;2.08;0.30;;;;;;;8.99;79.24;97980.41;5429491;26;20007;-46
2024/04/09 05:40:08;;;;;;;1.70;1.55;;;;;;;9.02;79.12;97984.63;5440358;25;20032;-47
2024/04/09 05:42:38;;;;;;;4.68;0.82;;;;;;;9.02;79.47;97984.63;5439235;26;20405;-46
2024/04/09 05:45:08;;;;;;;3.10;1.92;;;;;;;9.08;78.84;97979.28;5425876;26;20006;-44
2024/04/09 05:47:36;;;;;;;3.33;1.52;;;;;;;9.11;79.23;97984.34;5436113;26;20009;-45
2024/04/09 05:50:03;;;;;;;0.75;0.28;;;;;;;9.15;78.42;97980.78;5434651;26;20011;-45
2024/04/09 05:52:31;;;;;;;0.70;0.50;;;;;;;9.19;78.69;97982.38;5438264;26;20003;-46
2024/04/09 05:54:58;;;;;;;1.42;0.73;;;;;;;9.22;78.58;97992.63;5439902;25;20078;-44
2024/04/09 05:57:25;;;;;;;2.58;0.68;;;;;;;9.27;78.50;97989.91;5434870;26;20498;-46
2024/04/09 05:59:54;;;;;;;2.80;2.13;;;;;;;9.31;78.38;97995.81;5406451;26;20003;-45
2024/04/09 06:02:21;;;;;;;1.20;0.60;;;;;;;9.36;78.36;97999.13;5427440;26;20631;-46
2024/04/09 06:04:48;;;;;;;1.75;1.40;;;;;;;9.41;78.52;98004.97;5426050;26;21484;-46
2024/04/09 06:07:14;;;;;;;1.98;0.45;;;;;;;9.45;78.66;97998.81;5440646;26;20017;-45
2024/04/09 06:09:41;;;;;;;2.30;1.85;;;;;;;9.48;78.26;98003.91;5442527;26;20010;-44
2024/04/09 06:12:08;;;;;;;2.25;2.10;;;;;;;9.54;78.15;98012.34;5440495;26;20703;-46
2024/04/09 06:14:36;;;;;;;1.77;1.65;;;;;;;9.56;78.30;98015.75;5441468;26;20003;-44
2024/04/09 06:17:03;;;;;;;1.00;0.43;;;;;;;9.59;78.31;98018.22;5430987;26;20014;-46
2024/04/09 06:19:30;;;;;;;3.00;2.80;;;;;;;9.60;78.29;98022.50;5431296;26;20072;-45
2024/04/09 06:21:57;;;;;;;1.83;0.30;;;;;;;9.61;78.25;98025.03;5408082;26;20035;-43
2024/04/09 06:24:24;;;;;;;2.53;0.50;;;;;;;9.61;78.06;98024.19;5403467;26;20077;-44
2024/04/09 06:26:51;;;;;;;0.98;0.60;;;;;;;9.62;78.13;98031.03;5434674;26;20007;-46
2024/04/09 06:29:17;;;;;;;2.60;0.80;;;;;;;9.62;77.84;98041.38;5433352;26;20006;-47
2024/04/09 06:31:44;;;;;;;2.50;0.63;;;;;;;9.63;77.97;98037.91;5437288;26;20493;-47
2024/04/09 06:34:11;;;;;;;1.63;0.70;;;;;;;9.61;77.88;98047.44;5430150;26;20033;-45
2024/04/09 06:36:38;;;;;;;0.90;0.55;;;;;;;9.59;78.38;98046.66;5392812;26;20426;-44
2024/04/09 06:39:06;;;;;;;1.33;0.47;;;;;;;9.54;78.11;98064.03;5403693;26;20489;-46
2024/04/09 06:41:32;;;;;;;0.95;0.73;;;;;;;9.44;78.87;98060.88;5399529;26;20080;-45
2024/04/09 06:43:59;;;;;;;2.70;2.50;;;;;;;9.48;78.64;98076.25;5422583;26;20003;-45
2024/04/09 06:46:26;;;;;;;2.10;1.92;;;;;;;9.48;79.11;98081.44;5442302;25;20003;-47
2024/04/09 06:48:53;;;;;;;2.65;1.23;;;;;;;9.46;78.96;98080.59;5442832;25;19999;-45
2024/04/09 06:51:21;;;;;;;2.75;0.50;;;;;;;9.39;79.32;98087.72;5438183;26;20026;-46
2024/04/09 06:53:48;;;;;;;1.23;0.80;;;;;;;9.34;79.27;98110.25;5436944;25;20010;-45
2024/04/09 06:56:15;;;;;;;0.70;0.57;;;;;;;9.38;79.38;98105.84;5417706;26;20003;-47
2024/04/09 06:58:49;;;;;;;1.02;0.47;;;;;;;9.30;78.96;98112.97;5421802;26;20011;-46
2024/04/09 07:01:16;;;;;;;0.93;0.40;;;;;;;9.26;79.38;98118.22;5419001;26;20011;-45
2024/04/09 07:03:43;;;;;;;0.60;0.30;;;;;;;9.23;79.70;98136.38;5429479;26;20375;-46
2024/04/09 07:06:10;;;;;;;2.47;2.38;;;;;;;9.23;79.40;98153.63;5396551;26;20024;-44
2024/04/09 07:08:37;;;;;;;0.90;0.52;;;;;;;9.29;78.69;98157.78;5416558;26;20007;-44
2024/04/09 07:11:04;;;;;;;1.25;0.50;;;;;;;9.22;78.99;98160.53;5398342;26;20008;-45
2024/04/09 07:13:31;;;;;;;1.95;0.68;;;;;;;9.17;79.41;98162.41;5383892;26;20003;-45
2024/04/09 07:16:05;;;;;;;1.15;1.05;;;;;;;9.06;79.47;98167.00;5428876;26;20340;-45
2024/04/09 07:18:32;;;;;;;1.85;0.30;;;;;;;9.09;79.03;98187.59;5423697;26;20003;-45
2024/04/09 07:21:01;;;;;;;2.08;0.50;;;;;;;9.11;78.75;98196.13;5424878;26;20003;-46
2024/04/09 07:23:28;;;;;;;2.28;2.17;;;;;;;9.10;78.85;98205.63;5425849;25;20037;-46
2024/04/09 07:25:56;;;;;;;1.75;1.08;;;;;;;9.15;78.62;98217.56;5429864;26;20072;-45
2024/04/09 07:28:22;;;;;;;2.97;2.78;;;;;;;9.09;79.15;98218.59;5423589;25;20034;-45
2024/04/09 07:30:50;;;;;;;3.63;0.98;;;;;;;9.14;78.32;98224.47;5430107;26;20036;-46
2024/04/09 07:33:17;;;;;;;2.17;2.05;;;;;;;9.05;79.30;98229.88;5437080;26;20079;-48
2024/04/09 07:35:45;;;;;;;2.03;0.55;;;;;;;8.99;79.10;98239.47;5433631;26;20031;-45
2024/04/09 07:38:12;;;;;;;1.10;0.68;;;;;;;9.03;78.71;98249.72;5435416;26;20003;-46
2024/04/09 07:40:39;;;;;;;2.50;0.57;;;;;;;9.04;78.67;98253.97;5437822;25;20018;-46
2024/04/09 07:43:07;;;;;;;3.70;1.45;;;;;;;9.09;78.94;98255.56;5434556;26;20035;-46
2024/04/09 07:45:34;;;;;;;2.38;1.00;;;;;;;9.16;78.24;98261.44;5438036;26;20139;-46
2024/04/09 07:48:02;;;;;;;2.33;1.02;;;;;;;9.18;78.34;98269.16;5431718;25;20340;-45
2024/04/09 07:50:29;;;;;;;9.57;1.08;;;;;;;9.21;78.49;98272.50;5438618;25;20003;-45
2024/04/09 07:52:56;;;;;;;6.25;1.13;;;;;;;9.20;78.24;98273.38;5420979;26;20481;-45
2024/04/09 07:55:23;;;;;;;2.22;0.77;;;;;;;9.22;78.96;98287.09;5442353;26;20002;-44
2024/04/09 07:57:49;;;;;;;4.72;1.05;;;;;;;9.50;78.43;98299.28;5443305;25;20008;-47
2024/04/09 08:00:17;;;;;;;3.20;1.65;;;;;;;9.82;78.26;98312.25;5440951;26;19999;-45
2024/04/09 08:02:45;;;;;;;3.03;0.90;;;;;;;10.24;77.65;98312.81;5429998;25;20003;-46
2024/04/09 08:05:13;;;;;;;2.08;0.75;;;;;;;10.43;76.56;98323.44;5440658;26;20017;-49
2024/04/09 08:07:40;;;;;;;1.45;0.60;;;;;;;10.45;75.80;98320.84;5441439;26;20010;-45
2024/04/09 08:10:12;;;;;;;4.57;1.80;;;;;;;10.53;75.72;98340.44;5433373;26;20015;-45
2024/04/09 08:12:50;;;;;;;2.60;1.25;;;;;;;10.63;75.31;98345.34;5446030;26;20627;-45
2024/04/09 08:15:18;;;;;;;3.10;0.57;;;;;;;10.51;74.96;98347.41;5399272;26;20004;-45
2024/04/09 08:17:48;;;;;;;2.53;0.93;;;;;;;10.60;74.86;98351.44;5444083;26;20014;-49
2024/04/09 08:20:15;;;;;;;2.17;0.50;;;;;;;10.48;74.14;98357.88;5444105;26;20015;-48
2024/04/09 08:22:43;;;;;;;3.30;1.25;;;;;;;10.45;74.28;98367.44;5438451;26;20030;-49
2024/04/09 08:25:10;;;;;;;2.33;1.80;;;;;;;10.24;74.88;98374.91;5440998;26;20007;-49
2024/04/09 08:27:38;;;;;;;2.83;2.47;;;;;;;10.20;75.30;98379.31;5412467;26;20033;-46
2024/04/09 08:30:07;;;;;;;1.30;0.50;;;;;;;10.17;75.24;98394.94;5408514;26;20021;-49
2024/04/09 08:32:35;;;;;;;0.65;0.63;;;;;;;9.90;75.89;98405.16;5420649;26;20000;-48
2024/04/09 08:35:02;;;;;;;0.40;0.40;;;;;;;9.51;76.14;98406.97;5435156;26;20003;-50
2024/04/09 08:37:29;;;;;;;0.28;0.28;;;;;;;9.31;75.96;98419.50;5434885;26;20479;-48
2024/04/09 08:39:56;;;;;;;0.30;0.20;;;;;;;9.22;76.13;98436.94;5427161;26;20011;-50
2024/04/09 08:42:26;;;;;;;0.63;0.50;;;;;;;8.91;76.43;98450.53;5444999;26;20041;-47
2024/04/09 08:44:55;;;;;;;0.20;0.20;;;;;;;8.84;76.68;98454.97;5409664;26;20008;-47
2024/04/09 08:47:24;;;;;;;0.38;0.30;;;;;;;8.72;76.88;98453.50;5431672;26;20017;-48
2024/04/09 08:49:53;;;;;;;0.30;0.20;;;;;;;8.57;76.64;98474.47;5436241;26;20022;-45
2024/04/09 08:52:26;;;;;;;1.05;0.30;;;;;;;8.46;77.48;98477.22;5443212;26;20012;-45
2024/04/09 08:54:53;;;;;;;2.13;1.88;;;;;;;8.46;77.70;98495.28;5439126;26;20013;-47
2024/04/09 08:57:21;;;;;;;4.45;4.25;;;;;;;8.48;76.79;98490.97;5448091;26;20007;-45
2024/04/09 08:59:48;;;;;;;0.30;0.22;;;;;;;8.40;76.81;98509.16;5439721;26;20456;-48
2024/04/09 09:02:15;;;;;;;0.82;0.40;;;;;;;8.28;76.51;98515.38;5439938;26;20013;-46
2024/04/09 09:04:44;;;;;;;5.72;1.30;;;;;;;8.23;76.92;98528.38;5438117;26;20038;-45
2024/04/09 09:07:16;;;;;;;0.55;0.55;;;;;;;8.25;76.46;98542.97;5441776;26;20017;-47
2024/04/09 09:09:44;;;;;;;0.52;0.30;;;;;;;8.28;76.30;98550.66;5430281;26;20002;-46
2024/04/09 09:12:11;;;;;;;1.73;1.63;;;;;;;8.22;76.44;98557.63;5426787;26;20096;-45
2024/04/09 09:14:48;;;;;;;1.05;0.40;;;;;;;8.20;75.88;98564.53;5448852;26;20002;-47
2024/04/09 09:17:15;;;;;;;0.50;0.45;;;;;;;8.13;75.54;98582.69;5455208;26;20015;-43
2024/04/09 09:19:42;;;;;;;0.30;0.20;;;;;;;8.08;75.84;98593.13;5442549;26;20315;-45
2024/04/09 09:22:11;;;;;;;1.67;0.70;;;;;;;8.04;75.40;98583.72;5443892;26;20060;-45
2024/04/09 09:24:38;;;;;;;1.50;0.50;;;;;;;7.96;75.55;98613.06;5430597;26;20080;-46
2024/04/09 09:27:08;;;;;;;0.30;0.20;;;;;;;8.07;75.77;98609.47;5399291;26;20000;-44
2024/04/09 09:29:36;;;;;;;1.02;0.13;;;;;;;8.08;75.31;98611.16;5424779;26;20354;-47
2024/04/09 09:32:02;;;;;;;0.52;0.43;;;;;;;8.14;75.45;98618.78;5411329;25;20394;-46
2024/04/09 09:37:08;;;;;;;3.33;0.68;;;;;;;8.09;75.02;98636.94;5414963;26;20854;-46
2024/04/09 09:39:37;;;;;;;1.13;0.52;;;;;;;8.13;75.04;98660.94;5284406;27;20014;-44
2024/04/09 09:42:04;;;;;;;0.52;0.40;;;;;;;8.19;74.42;98660.00;5282196;26;20006;-45
2024/04/09 09:44:36;;;;;;;0.90;0.88;;;;;;;8.28;74.74;98672.72;5281114;27;20002;-46
2024/04/09 09:47:04;;;;;;;1.23;0.88;;;;;;;8.18;74.12;98679.75;5280588;27;20026;-46
2024/04/09 09:49:32;;;;;;;0.93;0.52;;;;;;;8.28;73.73;98666.75;5319953;26;20002;-45
2024/04/09 09:52:01;;;;;;;0.68;0.68;;;;;;;8.21;73.24;98682.31;5319933;26;20088;-44
2024/04/09 09:54:28;;;;;;;0.68;0.68;;;;;;;8.33;73.36;98688.16;5309476;27;19999;-45
2024/04/09 09:57:04;;;;;;;0.80;0.80;;;;;;;8.31;72.44;98674.44;5283742;27;20002;-44
2024/04/09 09:59:36;;;;;;;0.73;0.73;;;;;;;8.40;72.90;98700.09;5311889;27;20006;-47
2024/04/09 10:02:05;;;;;;;0.95;0.65;;;;;;;8.48;72.91;98721.44;5282905;27;20006;-44
2024/04/09 10:04:32;;;;;;;0.40;0.30;;;;;;;8.57;72.11;98715.34;5285916;27;20010;-46
2024/04/09 10:07:02;;;;;;;1.15;0.75;;;;;;;8.70;72.17;98725.44;5277996;27;20010;-45
2024/04/09 10:09:51;;;;;;;0.55;0.32;;;;;;;8.78;72.25;98751.16;5278536;27;20842;-44
2024/04/09 10:12:35;;;;;;;0.77;0.70;;;;;;;8.65;70.95;98750.50;5313674;26;20020;-46
2024/04/09 10:15:08;;;;;;;0.30;0.20;;;;;;;8.54;71.17;98756.66;5279669;26;20456;-46
2024/04/09 10:17:52;;;;;;;0.75;0.75;;;;;;;8.48;71.26;98765.31;5280852;26;20042;-46
2024/04/09 10:20:26;;;;;;;2.08;1.02;;;;;;;8.53;71.28;98765.28;5277459;26;20496;-48
2024/04/09 10:22:54;;;;;;;0.50;0.50;;;;;;;8.40;70.86;98764.59;5299615;27;20014;-46
2024/04/09 10:25:23;;;;;;;0.45;0.38;;;;;;;8.46;71.10;98782.56;5281285;27;20014;-45
2024/04/09 10:28:11;;;;;;;0.63;0.63;;;;;;;8.30;71.13;98794.81;5282983;26;20276;-47
2024/04/09 10:30:39;;;;;;;0.77;0.77;;;;;;;8.36;71.75;98781.00;5279291;27;20799;-52
2024/04/09 10:33:07;;;;;;;1.20;1.05;;;;;;;8.42;71.24;98801.56;5281609;27;20455;-47
2024/04/09 10:35:34;;;;;;;1.15;1.13;;;;;;;8.51;71.28;98799.72;5280408;27;20312;-48
2024/04/09 10:38:04;;;;;;;0.82;0.80;;;;;;;8.60;71.62;98822.81;5281680;26;20020;-48
2024/04/09 10:40:34;;;;;;;1.17;1.08;;;;;;;8.56;71.67;98818.59;5280195;26;20010;-46
2024/04/09 10:43:06;;;;;;;25.85;8.05;;;;;;;8.54;71.88;98828.94;5282758;27;20010;-45
2024/04/09 10:45:32;;;;;;;4.85;2.67;;;;;;;8.38;71.91;98836.03;5277729;27;20020;-45
2024/04/09 10:48:11;;;;;;;4.28;2.22;;;;;;;8.31;72.20;98834.38;5271275;27;20114;-45
2024/04/09 10:50:42;;;;;;;5.50;4.00;;;;;;;8.34;72.90;98844.66;5269147;27;20002;-45
2024/04/09 10:53:09;;;;;;;0.63;0.63;;;;;;;8.21;73.01;98854.28;5267295;27;20557;-47
2024/04/09 10:55:36;;;;;;;1.27;0.70;;;;;;;8.05;73.56;98853.59;5267233;27;24180;-46
2024/04/09 10:58:03;;;;;;;1.42;1.33;;;;;;;8.21;73.97;98870.59;5266206;27;20002;-45
2024/04/09 11:00:30;;;;;;;0.88;0.88;;;;;;;8.28;73.83;98865.38;5267724;27;20759;-46
2024/04/09 11:03:05;;;;;;;0.47;0.45;;;;;;;8.39;73.94;98879.00;5255657;27;20015;-45
2024/04/09 11:05:32;;;;;;;0.45;0.45;;;;;;;8.45;73.63;98873.75;5266021;27;20468;-46
2024/04/09 11:07:59;;;;;;;0.40;0.40;;;;;;;8.66;73.32;98886.41;5269012;27;20017;-45
2024/04/09 11:10:26;;;;;;;0.75;0.75;;;;;;;8.54;73.09;98897.78;5266541;26;20781;-44
2024/04/09 11:12:53;;;;;;;0.75;0.75;;;;;;;8.47;73.93;98907.28;5264484;26;20084;-44
2024/04/09 11:15:20;;;;;;;1.00;0.90;;;;;;;8.49;73.79;98915.88;5260342;27;20013;-45
2024/04/09 11:17:47;;;;;;;0.95;0.85;;;;;;;8.56;73.97;98935.59;5260097;27;20361;-45
2024/04/09 11:20:18;;;;;;;1.05;0.95;;;;;;;8.52;74.08;98935.63;5265282;27;20047;-45
2024/04/09 11:22:49;;;;;;;0.40;0.30;;;;;;;8.45;74.47;98930.50;5251639;26;20010;-45
2024/04/09 11:25:22;;;;;;;0.63;0.55;;;;;;;8.62;74.66;98937.25;5254954;27;20046;-46
2024/04/09 11:27:51;;;;;;;2.20;1.17;;;;;;;8.58;74.51;98936.41;5254246;27;20281;-44
2024/04/09 11:30:24;;;;;;;0.35;0.35;;;;;;;8.60;74.98;98945.00;5266476;27;20007;-45
2024/04/09 11:32:54;;;;;;;0.47;0.47;;;;;;;8.71;74.32;98937.13;5264493;27;20013;-44
2024/04/09 11:35:23;;;;;;;1.60;1.00;;;;;;;8.85;74.78;98962.75;5263915;27;20015;-44
2024/04/09 11:37:52;;;;;;;1.33;1.23;;;;;;;8.98;74.52;98958.28;5269683;27;20018;-46
2024/04/09 11:40:20;;;;;;;1.05;1.05;;;;;;;8.93;74.05;98961.78;5268651;27;20018;-45
2024/04/09 11:42:51;;;;;;;0.70;0.70;;;;;;;9.10;73.16;98979.66;5265814;27;20011;-45
2024/04/09 11:45:21;;;;;;;1.00;0.98;;;;;;;9.05;73.15;98991.78;5269579;27;20022;-46
2024/04/09 11:47:49;;;;;;;0.63;0.63;;;;;;;8.96;73.53;98992.75;5298130;26;20024;-48
2024/04/09 11:50:17;;;;;;;0.65;0.30;;;;;;;8.92;73.71;98991.09;5302686;26;20001;-46